Flight Track Log - Related Links

Times and Time Zones

All times are in EDT time to prevent confusion due to time zone crossing. See the UAL4678 flight status page for this flight to view local times or setup timezone preferences in your user account.

Time Position Orientation Groundspeed Altitude Reporting Facility
EDT Latitude Longitude Course Direction KTS MPH feet Rate Location/Type
Mon 08:01:37 PM 30.1239 -92.1031 227° Southwest 218 251 4,600  Level Houston Center
Mon 08:02:38 PM 30.0783 -92.1719 233° Southwest 252 290 7,700 2,585 Climbing Houston Center
Mon 08:03:00 PM 29.9906 -92.2699 231° Southwest  Level FlightAware Approximate
Mon 08:03:40 PM 30.0328 -92.2425 233° Southwest 270 311 9,900  Level Houston Center
Mon 08:04:00 PM 29.9384 -92.3430 231° Southwest  Level FlightAware Approximate
Mon 08:04:42 PM 29.9803 -92.3253 234° Southwest 304 350 10,600  Level Houston Center
Mon 08:05:00 PM 29.8930 -92.4254 227° Southwest  Level FlightAware Approximate
Mon 08:05:44 PM 29.9186 -92.4183 233° Southwest 351 404 12,200  Level Houston Center
Mon 08:06:00 PM 29.8342 -92.4989 227° Southwest  Level FlightAware Approximate
Mon 08:06:46 PM 29.8581 -92.5108 233° Southwest 361 415 14,100  Level Houston Center
Mon 08:07:48 PM 29.7986 -92.6028 233° Southwest 358 412 15,900 1,452 Climbing Houston Center
Mon 08:08:50 PM 29.7239 -92.7158 233° Southwest 365 420 17,100 878 Climbing Houston Center
Mon 08:09:51 PM 29.6589 -92.8156 233° Southwest 379 436 17,700 439 Climbing Houston Center
Mon 08:10:53 PM 29.6336 -92.9422 257° West 401 461 18,000 145 Climbing Houston Center
Mon 08:11:55 PM 29.6178 -93.0767 262° West 417 480 18,000  Level Houston Center
Mon 08:12:57 PM 29.6017 -93.2125 262° West 425 489 18,000  Level Houston Center
Mon 08:13:59 PM 29.5850 -93.3469 262° West 425 489 18,000  Level Houston Center
Mon 08:15:00 PM 29.5678 -93.4825 262° West 427 491 18,000  Level Houston Center
Mon 08:16:02 PM 29.5511 -93.6178 262° West 427 491 18,000  Level Houston Center
Mon 08:17:04 PM 29.5306 -93.7803 262° West 428 493 18,000  Level Houston Center
Mon 08:18:06 PM 29.5169 -93.9144 263° West 425 489 18,000 -145 Level Houston Center
Mon 08:19:08 PM 29.5228 -94.0522 273° West 429 494 17,700 -1,212 Descending Houston Center
Mon 08:19:45 PM 29.5250 -94.1469 272° West 412 474 16,000 -2,146 Descending Houston Center
Mon 08:21:11 PM 29.5314 -94.3003 273° West 390 449 13,300 -1,378 Descending Houston Center
Mon 08:22:13 PM 29.5642 -94.4167 288° West 385 443 12,600 -1,065 Descending Houston Center
Mon 08:23:15 PM 29.6200 -94.5478 296° West 384 442 11,100 -1,268 Descending Houston Center
Mon 08:24:16 PM 29.6661 -94.6567 296° West 381 438 10,000 -585 Descending Houston Center
Mon 08:25:18 PM 29.7100 -94.7586 296° West 356 410 9,900 -387 Descending Houston Center
Mon 08:26:20 PM 29.7464 -94.8442 296° West 308 354 9,200 -823 Descending Houston Center
Mon 08:27:22 PM 29.7817 -94.9294 296° West 299 344 8,200 -1,073 Descending Houston Center
Mon 08:28:23 PM 29.8236 -95.0283 296° West 291 335 7,000 -1,024 Descending Houston Center
Mon 08:29:25 PM 29.8581 -95.1094 296° West 287 330 6,100 -532 Descending Houston Center
Mon 08:30:27 PM 29.8922 -95.1908 296° West 285 328 5,900 -32 Descending Houston Center
Mon 08:32:00 PM 29.9531 -95.2930 311° West  Level FlightAware Approximate
Mon 08:32:30 PM 29.9000 -95.3661 311° West 279 321 6,000  Level Houston Center
Mon 08:33:32 PM 29.9011 -95.4533 271° West 275 316 5,000 -1,500 Descending Houston Center
Mon 08:34:34 PM 29.9217 -95.5403 285° West 265 305 2,900 -1,065 Descending Houston Center
Mon 08:35:36 PM 29.9819 -95.5186 17° North 248 285 2,800 -429 Descending Houston Center
Mon 08:36:40 PM 29.9922 -95.4483 80° East 199 229 2,000 -750 Descending Houston Center

Login

Don't have an account? Register now (free) for customized features, flight alerts, and more!